sensor_id;sensor_type;location;lat;lon;timestamp;pressure;altitude;pressure_sealevel;temperature;humidity
20825;BME280;10573;50.936;6.978;2023-10-19T00:01:57;99118.31;;;12.75;80.48
20825;BME280;10573;50.936;6.978;2023-10-19T00:04:25;99120.06;;;12.83;80.54
20825;BME280;10573;50.936;6.978;2023-10-19T00:06:52;99126.38;;;12.84;80.56
20825;BME280;10573;50.936;6.978;2023-10-19T00:09:18;99123.88;;;12.89;80.32
20825;BME280;10573;50.936;6.978;2023-10-19T00:11:45;99119.06;;;12.91;80.58
20825;BME280;10573;50.936;6.978;2023-10-19T00:14:12;99123.69;;;12.90;80.52
20825;BME280;10573;50.936;6.978;2023-10-19T00:16:44;99126.44;;;12.97;80.25
20825;BME280;10573;50.936;6.978;2023-10-19T00:19:16;99124.63;;;13.11;80.30
20825;BME280;10573;50.936;6.978;2023-10-19T00:21:45;99117.94;;;13.14;79.96
20825;BME280;10573;50.936;6.978;2023-10-19T00:24:19;99113.06;;;13.16;80.29
20825;BME280;10573;50.936;6.978;2023-10-19T00:26:47;99118.78;;;13.21;80.00
20825;BME280;10573;50.936;6.978;2023-10-19T00:29:20;99116.88;;;13.15;79.76
20825;BME280;10573;50.936;6.978;2023-10-19T00:32:06;99114.59;;;13.25;79.54
20825;BME280;10573;50.936;6.978;2023-10-19T00:34:38;99120.53;;;13.35;79.55
20825;BME280;10573;50.936;6.978;2023-10-19T00:37:04;99120.63;;;13.49;79.41
20825;BME280;10573;50.936;6.978;2023-10-19T00:39:34;99113.47;;;13.48;79.37
20825;BME280;10573;50.936;6.978;2023-10-19T00:42:08;99122.91;;;13.38;79.56
20825;BME280;10573;50.936;6.978;2023-10-19T00:44:34;99109.44;;;13.43;79.66
20825;BME280;10573;50.936;6.978;2023-10-19T00:47:14;99111.75;;;13.40;79.63
20825;BME280;10573;50.936;6.978;2023-10-19T00:49:45;99116.84;;;13.50;79.48
20825;BME280;10573;50.936;6.978;2023-10-19T00:52:10;99109.00;;;13.40;79.59
20825;BME280;10573;50.936;6.978;2023-10-19T00:54:38;99102.72;;;13.39;79.79
20825;BME280;10573;50.936;6.978;2023-10-19T00:57:19;99096.19;;;13.40;80.44
20825;BME280;10573;50.936;6.978;2023-10-19T01:00:01;99087.53;;;13.37;80.15
20825;BME280;10573;50.936;6.978;2023-10-19T01:02:53;99077.91;;;13.48;79.81
20825;BME280;10573;50.936;6.978;2023-10-19T01:05:25;99081.91;;;13.52;79.69
20825;BME280;10573;50.936;6.978;2023-10-19T01:07:57;99087.38;;;13.52;79.71
20825;BME280;10573;50.936;6.978;2023-10-19T01:10:23;99088.88;;;13.61;79.93
20825;BME280;10573;50.936;6.978;2023-10-19T01:12:49;99093.09;;;13.64;79.66
20825;BME280;10573;50.936;6.978;2023-10-19T01:15:20;99098.59;;;13.70;79.30
20825;BME280;10573;50.936;6.978;2023-10-19T01:17:58;99088.91;;;13.68;79.34
20825;BME280;10573;50.936;6.978;2023-10-19T01:20:29;99096.47;;;13.59;79.68
20825;BME280;10573;50.936;6.978;2023-10-19T01:22:56;99096.91;;;13.69;79.59
20825;BME280;10573;50.936;6.978;2023-10-19T01:25:50;99096.69;;;13.64;79.46
20825;BME280;10573;50.936;6.978;2023-10-19T01:28:16;99094.59;;;13.66;79.95
20825;BME280;10573;50.936;6.978;2023-10-19T01:30:43;99094.81;;;13.71;79.86
20825;BME280;10573;50.936;6.978;2023-10-19T01:33:20;99092.28;;;13.63;80.08
20825;BME280;10573;50.936;6.978;2023-10-19T01:35:45;99095.22;;;13.68;79.90
20825;BME280;10573;50.936;6.978;2023-10-19T01:38:30;99096.50;;;13.72;80.09
20825;BME280;10573;50.936;6.978;2023-10-19T01:41:02;99092.31;;;13.76;80.25
20825;BME280;10573;50.936;6.978;2023-10-19T01:43:31;99085.16;;;13.89;79.92
20825;BME280;10573;50.936;6.978;2023-10-19T01:46:00;99090.66;;;14.02;79.68
20825;BME280;10573;50.936;6.978;2023-10-19T01:48:40;99092.75;;;14.07;79.55
20825;BME280;10573;50.936;6.978;2023-10-19T01:51:08;99092.78;;;14.20;79.55
20825;BME280;10573;50.936;6.978;2023-10-19T01:53:39;99078.47;;;14.25;79.19
20825;BME280;10573;50.936;6.978;2023-10-19T01:56:06;99083.50;;;14.28;79.17
20825;BME280;10573;50.936;6.978;2023-10-19T01:58:37;99080.75;;;14.28;78.93
20825;BME280;10573;50.936;6.978;2023-10-19T02:01:04;99074.63;;;14.13;79.67
20825;BME280;10573;50.936;6.978;2023-10-19T02:03:42;99077.19;;;14.21;79.50
20825;BME280;10573;50.936;6.978;2023-10-19T02:06:12;99065.16;;;14.22;79.53
20825;BME280;10573;50.936;6.978;2023-10-19T02:11:52;99070.63;;;14.42;78.81
20825;BME280;10573;50.936;6.978;2023-10-19T02:14:19;99064.13;;;14.23;79.15
20825;BME280;10573;50.936;6.978;2023-10-19T02:16:55;99064.53;;;14.33;78.95
20825;BME280;10573;50.936;6.978;2023-10-19T02:19:26;99054.03;;;14.30;78.96
20825;BME280;10573;50.936;6.978;2023-10-19T02:21:54;99051.06;;;14.12;79.59
20825;BME280;10573;50.936;6.978;2023-10-19T02:24:21;99043.91;;;14.24;79.31
20825;BME280;10573;50.936;6.978;2023-10-19T02:26:49;99047.69;;;14.16;79.74
20825;BME280;10573;50.936;6.978;2023-10-19T02:29:16;99047.25;;;14.13;79.82
20825;BME280;10573;50.936;6.978;2023-10-19T02:31:44;99046.00;;;14.22;79.78
20825;BME280;10573;50.936;6.978;2023-10-19T02:34:10;99044.72;;;14.24;79.64
20825;BME280;10573;50.936;6.978;2023-10-19T02:36:38;99046.84;;;14.16;79.85
20825;BME280;10573;50.936;6.978;2023-10-19T02:39:10;99049.81;;;14.07;80.33
20825;BME280;10573;50.936;6.978;2023-10-19T02:41:39;99051.28;;;14.17;80.31
20825;BME280;10573;50.936;6.978;2023-10-19T02:44:08;99052.56;;;14.21;80.04
20825;BME280;10573;50.936;6.978;2023-10-19T02:46:53;99053.81;;;14.25;80.03
20825;BME280;10573;50.936;6.978;2023-10-19T02:49:23;99048.72;;;14.22;80.35
20825;BME280;10573;50.936;6.978;2023-10-19T02:51:52;99050.44;;;14.23;80.38
20825;BME280;10573;50.936;6.978;2023-10-19T02:54:20;99044.94;;;14.36;79.71
20825;BME280;10573;50.936;6.978;2023-10-19T02:56:51;99058.03;;;14.34;79.87
20825;BME280;10573;50.936;6.978;2023-10-19T02:59:19;99046.41;;;14.32;80.45
20825;BME280;10573;50.936;6.978;2023-10-19T03:01:48;99035.88;;;14.42;79.98
20825;BME280;10573;50.936;6.978;2023-10-19T03:04:15;99040.09;;;14.38;80.35
20825;BME280;10573;50.936;6.978;2023-10-19T03:06:41;99024.91;;;14.42;80.21
20825;BME280;10573;50.936;6.978;2023-10-19T03:09:08;99030.63;;;14.34;80.33
20825;BME280;10573;50.936;6.978;2023-10-19T03:11:41;99028.03;;;14.53;79.93
20825;BME280;10573;50.936;6.978;2023-10-19T03:14:10;99034.81;;;14.43;80.03
20825;BME280;10573;50.936;6.978;2023-10-19T03:16:38;99025.34;;;14.33;80.69
20825;BME280;10573;50.936;6.978;2023-10-19T03:19:07;99021.53;;;14.40;80.55
20825;BME280;10573;50.936;6.978;2023-10-19T03:21:33;99010.34;;;14.55;79.99
20825;BME280;10573;50.936;6.978;2023-10-19T03:24:08;99012.69;;;14.52;80.34
20825;BME280;10573;50.936;6.978;2023-10-19T03:26:54;99012.88;;;14.50;80.04
20825;BME280;10573;50.936;6.978;2023-10-19T03:29:19;98999.38;;;14.55;79.84
20825;BME280;10573;50.936;6.978;2023-10-19T03:31:53;98998.34;;;14.50;80.06
20825;BME280;10573;50.936;6.978;2023-10-19T03:34:18;98996.66;;;14.42;80.20
20825;BME280;10573;50.936;6.978;2023-10-19T03:36:44;98990.31;;;14.55;80.31
20825;BME280;10573;50.936;6.978;2023-10-19T03:39:10;98989.31;;;14.36;80.31
20825;BME280;10573;50.936;6.978;2023-10-19T03:41:42;98993.94;;;14.35;81.03
20825;BME280;10573;50.936;6.978;2023-10-19T03:44:10;98991.63;;;14.39;80.75
20825;BME280;10573;50.936;6.978;2023-10-19T03:46:42;98990.56;;;14.47;80.60
20825;BME280;10573;50.936;6.978;2023-10-19T03:49:19;98995.00;;;14.48;80.86
20825;BME280;10573;50.936;6.978;2023-10-19T03:51:45;98988.41;;;14.55;80.35
20825;BME280;10573;50.936;6.978;2023-10-19T03:54:43;98993.69;;;14.50;80.63
20825;BME280;10573;50.936;6.978;2023-10-19T03:57:11;98996.66;;;14.49;80.81
20825;BME280;10573;50.936;6.978;2023-10-19T03:59:41;98994.56;;;14.64;80.41
20825;BME280;10573;50.936;6.978;2023-10-19T04:02:10;98986.53;;;14.63;80.61
20825;BME280;10573;50.936;6.978;2023-10-19T04:04:39;98985.66;;;14.69;80.25
20825;BME280;10573;50.936;6.978;2023-10-19T04:07:11;98983.97;;;14.81;79.84
20825;BME280;10573;50.936;6.978;2023-10-19T04:09:45;98979.34;;;14.75;79.73
20825;BME280;10573;50.936;6.978;2023-10-19T04:12:26;98981.03;;;14.69;79.76
20825;BME280;10573;50.936;6.978;2023-10-19T04:14:54;98973.66;;;14.56;80.19
20825;BME280;10573;50.936;6.978;2023-10-19T04:17:20;98965.00;;;14.73;80.07
20825;BME280;10573;50.936;6.978;2023-10-19T04:19:47;98972.63;;;14.64;80.19
20825;BME280;10573;50.936;6.978;2023-10-19T04:22:14;98975.13;;;14.72;80.15
20825;BME280;10573;50.936;6.978;2023-10-19T04:24:48;98972.19;;;14.67;80.09
20825;BME280;10573;50.936;6.978;2023-10-19T04:27:14;98974.94;;;14.54;80.33
20825;BME280;10573;50.936;6.978;2023-10-19T04:29:40;98970.13;;;14.49;81.02
20825;BME280;10573;50.936;6.978;2023-10-19T04:32:08;98971.34;;;14.67;80.50
20825;BME280;10573;50.936;6.978;2023-10-19T04:34:34;98971.13;;;14.62;80.46
20825;BME280;10573;50.936;6.978;2023-10-19T04:37:02;98977.66;;;14.67;80.57
20825;BME280;10573;50.936;6.978;2023-10-19T04:39:28;98965.44;;;14.56;80.56
20825;BME280;10573;50.936;6.978;2023-10-19T04:41:55;98960.59;;;14.58;80.74
20825;BME280;10573;50.936;6.978;2023-10-19T04:44:21;98963.94;;;14.60;80.63
20825;BME280;10573;50.936;6.978;2023-10-19T04:46:48;98959.13;;;14.69;80.59
20825;BME280;10573;50.936;6.978;2023-10-19T04:49:13;98963.72;;;14.75;80.34
20825;BME280;10573;50.936;6.978;2023-10-19T04:51:38;98954.00;;;14.80;80.51
20825;BME280;10573;50.936;6.978;2023-10-19T04:54:05;98954.19;;;14.85;80.22
20825;BME280;10573;50.936;6.978;2023-10-19T04:56:31;98957.59;;;14.80;80.41
20825;BME280;10573;50.936;6.978;2023-10-19T04:58:57;98963.66;;;14.89;80.55
20825;BME280;10573;50.936;6.978;2023-10-19T05:01:22;98966.22;;;14.84;80.30
20825;BME280;10573;50.936;6.978;2023-10-19T05:03:48;98960.91;;;14.89;79.89
20825;BME280;10573;50.936;6.978;2023-10-19T05:06:13;98959.44;;;14.93;79.67
20825;BME280;10573;50.936;6.978;2023-10-19T05:08:38;98968.72;;;14.92;80.04
20825;BME280;10573;50.936;6.978;2023-10-19T05:11:04;98960.94;;;14.82;80.29
20825;BME280;10573;50.936;6.978;2023-10-19T05:13:31;98961.56;;;14.91;80.11
20825;BME280;10573;50.936;6.978;2023-10-19T05:15:56;98968.50;;;14.93;80.09
20825;BME280;10573;50.936;6.978;2023-10-19T05:18:24;98966.59;;;14.94;79.89
20825;BME280;10573;50.936;6.978;2023-10-19T05:20:50;98966.00;;;14.92;79.94
20825;BME280;10573;50.936;6.978;2023-10-19T05:23:24;98959.03;;;14.89;80.39
20825;BME280;10573;50.936;6.978;2023-10-19T05:25:51;98959.94;;;14.76;80.50
20825;BME280;10573;50.936;6.978;2023-10-19T05:28:17;98956.06;;;14.91;80.56
20825;BME280;10573;50.936;6.978;2023-10-19T05:30:44;98958.16;;;14.96;80.21
20825;BME280;10573;50.936;6.978;2023-10-19T05:33:09;98957.13;;;14.90;80.28
20825;BME280;10573;50.936;6.978;2023-10-19T05:35:35;98958.59;;;14.92;80.37
20825;BME280;10573;50.936;6.978;2023-10-19T05:38:06;98957.50;;;15.00;80.15
20825;BME280;10573;50.936;6.978;2023-10-19T05:40:31;98954.97;;;15.05;80.19
20825;BME280;10573;50.936;6.978;2023-10-19T05:42:57;98961.75;;;14.96;80.22
20825;BME280;10573;50.936;6.978;2023-10-19T05:45:24;98955.19;;;14.97;80.52
20825;BME280;10573;50.936;6.978;2023-10-19T05:47:49;98955.22;;;14.90;80.69
20825;BME280;10573;50.936;6.978;2023-10-19T05:50:15;98959.84;;;14.97;80.49
20825;BME280;10573;50.936;6.978;2023-10-19T05:52:43;98953.09;;;14.99;80.48
20825;BME280;10573;50.936;6.978;2023-10-19T05:55:09;98957.28;;;15.02;80.46
20825;BME280;10573;50.936;6.978;2023-10-19T05:57:37;98965.31;;;14.97;80.93
20825;BME280;10573;50.936;6.978;2023-10-19T06:00:10;98967.03;;;14.91;80.74
20825;BME280;10573;50.936;6.978;2023-10-19T06:02:42;98969.94;;;15.03;80.57
20825;BME280;10573;50.936;6.978;2023-10-19T06:05:09;98976.31;;;14.90;80.54
20825;BME280;10573;50.936;6.978;2023-10-19T06:07:34;98977.63;;;14.81;81.02
20825;BME280;10573;50.936;6.978;2023-10-19T06:10:00;98980.56;;;14.86;81.27
20825;BME280;10573;50.936;6.978;2023-10-19T06:12:30;98985.00;;;14.87;81.20
20825;BME280;10573;50.936;6.978;2023-10-19T06:14:55;98984.94;;;15.00;80.61
20825;BME280;10573;50.936;6.978;2023-10-19T06:17:21;98984.28;;;14.98;80.77
20825;BME280;10573;50.936;6.978;2023-10-19T06:19:46;98989.38;;;14.88;80.81
20825;BME280;10573;50.936;6.978;2023-10-19T06:22:11;98995.94;;;14.93;80.94
20825;BME280;10573;50.936;6.978;2023-10-19T06:24:37;99001.59;;;14.99;81.02
20825;BME280;10573;50.936;6.978;2023-10-19T06:27:03;98999.44;;;15.07;80.90
20825;BME280;10573;50.936;6.978;2023-10-19T06:29:29;98994.00;;;15.01;81.13
20825;BME280;10573;50.936;6.978;2023-10-19T06:31:54;98998.84;;;15.05;81.00
20825;BME280;10573;50.936;6.978;2023-10-19T06:34:20;98995.66;;;15.08;80.82
20825;BME280;10573;50.936;6.978;2023-10-19T06:36:45;98997.09;;;15.18;80.63
20825;BME280;10573;50.936;6.978;2023-10-19T06:39:11;98994.72;;;15.21;80.62
20825;BME280;10573;50.936;6.978;2023-10-19T06:41:39;98994.81;;;15.01;81.19
20825;BME280;10573;50.936;6.978;2023-10-19T06:44:05;98994.13;;;15.19;80.53
20825;BME280;10573;50.936;6.978;2023-10-19T06:46:31;98997.34;;;15.41;80.09
20825;BME280;10573;50.936;6.978;2023-10-19T06:48:56;99005.44;;;15.36;80.22
20825;BME280;10573;50.936;6.978;2023-10-19T06:51:26;98995.13;;;15.25;80.50
20825;BME280;10573;50.936;6.978;2023-10-19T06:53:54;98999.94;;;15.36;80.31
20825;BME280;10573;50.936;6.978;2023-10-19T06:56:20;98991.34;;;15.26;80.56
20825;BME280;10573;50.936;6.978;2023-10-19T06:58:46;98994.38;;;15.50;80.16
20825;BME280;10573;50.936;6.978;2023-10-19T07:01:11;99000.91;;;15.49;80.27
20825;BME280;10573;50.936;6.978;2023-10-19T07:03:38;98999.50;;;15.39;80.36
20825;BME280;10573;50.936;6.978;2023-10-19T07:06:04;99002.59;;;15.50;80.12
20825;BME280;10573;50.936;6.978;2023-10-19T07:08:29;99011.22;;;15.53;80.33
20825;BME280;10573;50.936;6.978;2023-10-19T07:10:55;99011.34;;;15.65;79.95
20825;BME280;10573;50.936;6.978;2023-10-19T07:13:21;99010.91;;;15.68;79.99
20825;BME280;10573;50.936;6.978;2023-10-19T07:15:47;99015.78;;;15.66;80.04
20825;BME280;10573;50.936;6.978;2023-10-19T07:18:14;99004.63;;;15.61;80.23
20825;BME280;10573;50.936;6.978;2023-10-19T07:20:40;99012.59;;;15.69;79.88
20825;BME280;10573;50.936;6.978;2023-10-19T07:23:08;99013.19;;;15.78;79.59
20825;BME280;10573;50.936;6.978;2023-10-19T07:25:52;99011.44;;;15.90;79.22
20825;BME280;10573;50.936;6.978;2023-10-19T07:28:20;99012.31;;;15.77;79.89
20825;BME280;10573;50.936;6.978;2023-10-19T07:30:47;99008.00;;;15.63;80.29
20825;BME280;10573;50.936;6.978;2023-10-19T07:33:14;99010.03;;;15.74;80.25
20825;BME280;10573;50.936;6.978;2023-10-19T07:35:43;99018.94;;;15.70;80.16
20825;BME280;10573;50.936;6.978;2023-10-19T07:38:12;99014.00;;;15.85;79.72
20825;BME280;10573;50.936;6.978;2023-10-19T07:40:38;99027.69;;;15.92;79.72
20825;BME280;10573;50.936;6.978;2023-10-19T07:43:03;99027.50;;;15.87;79.95
20825;BME280;10573;50.936;6.978;2023-10-19T07:45:29;99025.66;;;15.81;80.40
20825;BME280;10573;50.936;6.978;2023-10-19T07:47:57;99025.06;;;16.04;79.86
20825;BME280;10573;50.936;6.978;2023-10-19T07:50:22;99017.28;;;16.19;79.27
20825;BME280;10573;50.936;6.978;2023-10-19T07:52:50;99020.28;;;16.18;79.21
20825;BME280;10573;50.936;6.978;2023-10-19T07:55:17;99020.78;;;16.08;79.26
20825;BME280;10573;50.936;6.978;2023-10-19T07:57:43;99026.00;;;16.16;79.39
20825;BME280;10573;50.936;6.978;2023-10-19T08:00:10;99017.41;;;16.31;78.97
20825;BME280;10573;50.936;6.978;2023-10-19T08:02:40;99023.97;;;16.30;78.83
20825;BME280;10573;50.936;6.978;2023-10-19T08:05:07;99016.63;;;16.24;78.78
20825;BME280;10573;50.936;6.978;2023-10-19T08:07:33;99007.97;;;16.46;78.34
20825;BME280;10573;50.936;6.978;2023-10-19T08:10:00;98999.19;;;16.55;78.06
20825;BME280;10573;50.936;6.978;2023-10-19T08:12:26;98994.19;;;16.27;78.71
20825;BME280;10573;50.936;6.978;2023-10-19T08:14:54;98997.22;;;16.44;78.41
20825;BME280;10573;50.936;6.978;2023-10-19T08:17:21;98996.13;;;16.64;78.05
20825;BME280;10573;50.936;6.978;2023-10-19T08:19:46;99006.63;;;16.73;77.61
20825;BME280;10573;50.936;6.978;2023-10-19T08:22:12;98991.63;;;16.88;77.47
20825;BME280;10573;50.936;6.978;2023-10-19T08:24:40;98995.34;;;17.00;76.56
20825;BME280;10573;50.936;6.978;2023-10-19T08:27:08;98994.25;;;17.01;76.38
20825;BME280;10573;50.936;6.978;2023-10-19T08:29:36;98998.22;;;17.05;76.61
20825;BME280;10573;50.936;6.978;2023-10-19T08:32:02;98995.44;;;17.24;75.45
20825;BME280;10573;50.936;6.978;2023-10-19T08:34:27;98981.31;;;17.51;75.04
20825;BME280;10573;50.936;6.978;2023-10-19T08:36:55;98981.78;;;17.48;74.91
20825;BME280;10573;50.936;6.978;2023-10-19T08:39:20;98985.28;;;17.55;74.78
20825;BME280;10573;50.936;6.978;2023-10-19T08:41:46;98996.56;;;17.65;74.58
20825;BME280;10573;50.936;6.978;2023-10-19T08:44:14;98990.06;;;18.02;73.77
20825;BME280;10573;50.936;6.978;2023-10-19T08:46:44;98985.91;;;18.23;72.57
20825;BME280;10573;50.936;6.978;2023-10-19T08:49:14;98985.91;;;18.47;72.24
20825;BME280;10573;50.936;6.978;2023-10-19T08:51:44;98975.94;;;18.45;72.25
20825;BME280;10573;50.936;6.978;2023-10-19T08:54:12;98983.00;;;18.65;71.55
20825;BME280;10573;50.936;6.978;2023-10-19T08:56:38;98973.06;;;18.52;71.94
20825;BME280;10573;50.936;6.978;2023-10-19T08:59:04;98976.06;;;18.51;71.73
20825;BME280;10573;50.936;6.978;2023-10-19T09:01:31;98980.53;;;18.40;71.65
20825;BME280;10573;50.936;6.978;2023-10-19T09:03:58;98975.09;;;18.57;72.03
20825;BME280;10573;50.936;6.978;2023-10-19T09:06:24;98971.13;;;18.53;71.49
20825;BME280;10573;50.936;6.978;2023-10-19T09:08:50;98967.44;;;18.59;71.44
20825;BME280;10573;50.936;6.978;2023-10-19T09:11:16;98961.06;;;18.58;71.57
20825;BME280;10573;50.936;6.978;2023-10-19T09:13:48;98959.59;;;18.68;70.71
20825;BME280;10573;50.936;6.978;2023-10-19T09:16:15;98957.59;;;18.63;70.96
20825;BME280;10573;50.936;6.978;2023-10-19T09:18:40;98953.13;;;18.74;70.13
20825;BME280;10573;50.936;6.978;2023-10-19T09:21:07;98950.09;;;18.87;69.60
20825;BME280;10573;50.936;6.978;2023-10-19T09:23:34;98948.16;;;18.88;68.92
20825;BME280;10573;50.936;6.978;2023-10-19T09:26:01;98948.06;;;18.94;68.83
20825;BME280;10573;50.936;6.978;2023-10-19T09:28:34;98943.38;;;18.95;68.98
20825;BME280;10573;50.936;6.978;2023-10-19T09:31:00;98936.09;;;19.18;68.13
20825;BME280;10573;50.936;6.978;2023-10-19T09:33:26;98937.91;;;19.12;68.09
20825;BME280;10573;50.936;6.978;2023-10-19T09:35:52;98936.97;;;19.35;67.65
20825;BME280;10573;50.936;6.978;2023-10-19T09:38:23;98927.22;;;19.44;67.39
20825;BME280;10573;50.936;6.978;2023-10-19T09:40:51;98925.94;;;19.52;67.27
20825;BME280;10573;50.936;6.978;2023-10-19T09:43:25;98924.13;;;19.58;66.65
20825;BME280;10573;50.936;6.978;2023-10-19T09:45:56;98916.75;;;19.64;66.04
20825;BME280;10573;50.936;6.978;2023-10-19T09:48:25;98915.91;;;19.63;65.81
20825;BME280;10573;50.936;6.978;2023-10-19T09:50:54;98922.13;;;19.70;65.42
20825;BME280;10573;50.936;6.978;2023-10-19T09:53:27;98909.06;;;19.66;65.40
20825;BME280;10573;50.936;6.978;2023-10-19T09:55:57;98917.16;;;19.72;64.56
20825;BME280;10573;50.936;6.978;2023-10-19T09:58:27;98917.13;;;20.01;63.74
20825;BME280;10573;50.936;6.978;2023-10-19T10:00:54;98914.94;;;20.03;63.12
20825;BME280;10573;50.936;6.978;2023-10-19T10:03:44;98909.47;;;20.25;62.86
20825;BME280;10573;50.936;6.978;2023-10-19T10:06:11;98912.03;;;20.32;62.00
20825;BME280;10573;50.936;6.978;2023-10-19T10:08:38;98906.78;;;20.53;61.67
20825;BME280;10573;50.936;6.978;2023-10-19T10:13:44;98918.28;;;20.67;61.05
20825;BME280;10573;50.936;6.978;2023-10-19T10:16:13;98915.28;;;20.68;61.19
20825;BME280;10573;50.936;6.978;2023-10-19T10:18:40;98915.50;;;20.61;61.36
20825;BME280;10573;50.936;6.978;2023-10-19T10:21:13;98919.78;;;20.52;61.56
20825;BME280;10573;50.936;6.978;2023-10-19T10:23:47;98922.03;;;20.72;60.78
20825;BME280;10573;50.936;6.978;2023-10-19T10:26:17;98916.47;;;20.72;60.83
20825;BME280;10573;50.936;6.978;2023-10-19T10:28:48;98907.94;;;21.01;60.89
20825;BME280;10573;50.936;6.978;2023-10-19T10:31:19;98893.44;;;21.16;60.68
20825;BME280;10573;50.936;6.978;2023-10-19T10:33:50;98904.69;;;21.32;60.04
20825;BME280;10573;50.936;6.978;2023-10-19T10:36:20;98904.53;;;21.43;59.60
20825;BME280;10573;50.936;6.978;2023-10-19T10:38:50;98898.00;;;21.55;59.51
20825;BME280;10573;50.936;6.978;2023-10-19T10:41:23;98887.84;;;21.38;59.87
20825;BME280;10573;50.936;6.978;2023-10-19T10:43:56;98893.13;;;21.40;59.70
20825;BME280;10573;50.936;6.978;2023-10-19T10:46:23;98893.75;;;21.20;59.09
20825;BME280;10573;50.936;6.978;2023-10-19T10:48:49;98902.94;;;21.25;59.74
20825;BME280;10573;50.936;6.978;2023-10-19T10:51:19;98891.47;;;21.11;60.13
20825;BME280;10573;50.936;6.978;2023-10-19T10:53:52;98892.41;;;20.95;60.73
20825;BME280;10573;50.936;6.978;2023-10-19T10:56:19;98889.16;;;21.03;60.25
20825;BME280;10573;50.936;6.978;2023-10-19T10:58:45;98880.13;;;20.86;60.47
20825;BME280;10573;50.936;6.978;2023-10-19T11:01:11;98879.13;;;20.97;60.78
20825;BME280;10573;50.936;6.978;2023-10-19T11:03:37;98874.13;;;20.94;60.56
20825;BME280;10573;50.936;6.978;2023-10-19T11:06:06;98869.84;;;21.08;60.24
20825;BME280;10573;50.936;6.978;2023-10-19T11:08:37;98870.88;;;21.02;60.71
20825;BME280;10573;50.936;6.978;2023-10-19T11:11:08;98864.72;;;20.95;61.21
20825;BME280;10573;50.936;6.978;2023-10-19T11:13:36;98855.41;;;20.79;61.86
20825;BME280;10573;50.936;6.978;2023-10-19T11:16:04;98864.06;;;20.88;61.99
20825;BME280;10573;50.936;6.978;2023-10-19T11:18:38;98856.41;;;20.95;61.46
20825;BME280;10573;50.936;6.978;2023-10-19T11:21:13;98853.72;;;21.05;61.14
20825;BME280;10573;50.936;6.978;2023-10-19T11:23:46;98847.72;;;20.86;61.68
20825;BME280;10573;50.936;6.978;2023-10-19T11:26:14;98840.91;;;20.94;61.33
20825;BME280;10573;50.936;6.978;2023-10-19T11:28:40;98849.34;;;21.09;61.33
20825;BME280;10573;50.936;6.978;2023-10-19T11:31:14;98846.31;;;20.84;61.57
20825;BME280;10573;50.936;6.978;2023-10-19T11:33:41;98840.38;;;20.97;61.58
20825;BME280;10573;50.936;6.978;2023-10-19T11:36:08;98833.75;;;20.98;61.16
20825;BME280;10573;50.936;6.978;2023-10-19T11:38:33;98831.75;;;20.93;61.64
20825;BME280;10573;50.936;6.978;2023-10-19T11:40:58;98831.94;;;20.87;61.27
20825;BME280;10573;50.936;6.978;2023-10-19T11:43:24;98821.06;;;20.75;61.78
20825;BME280;10573;50.936;6.978;2023-10-19T11:45:49;98818.16;;;20.92;61.49
20825;BME280;10573;50.936;6.978;2023-10-19T11:48:15;98821.56;;;20.99;61.16
20825;BME280;10573;50.936;6.978;2023-10-19T11:50:41;98817.56;;;20.85;61.32
20825;BME280;10573;50.936;6.978;2023-10-19T11:53:06;98818.09;;;20.87;60.90
20825;BME280;10573;50.936;6.978;2023-10-19T11:55:31;98821.72;;;20.65;60.68
20825;BME280;10573;50.936;6.978;2023-10-19T11:57:57;98831.25;;;20.74;61.18
20825;BME280;10573;50.936;6.978;2023-10-19T12:00:22;98825.84;;;20.85;61.33
20825;BME280;10573;50.936;6.978;2023-10-19T12:02:50;98830.25;;;20.81;61.59
20825;BME280;10573;50.936;6.978;2023-10-19T12:05:15;98832.94;;;20.75;61.47
20825;BME280;10573;50.936;6.978;2023-10-19T12:07:41;98823.81;;;20.53;61.92
20825;BME280;10573;50.936;6.978;2023-10-19T12:10:10;98841.84;;;20.33;63.21
20825;BME280;10573;50.936;6.978;2023-10-19T12:12:36;98828.38;;;20.20;63.43
20825;BME280;10573;50.936;6.978;2023-10-19T12:15:03;98821.81;;;20.26;63.75
20825;BME280;10573;50.936;6.978;2023-10-19T12:17:31;98824.56;;;20.26;63.48
20825;BME280;10573;50.936;6.978;2023-10-19T12:19:56;98840.00;;;20.22;63.57
20825;BME280;10573;50.936;6.978;2023-10-19T12:22:21;98845.25;;;20.01;64.08
20825;BME280;10573;50.936;6.978;2023-10-19T12:24:47;98842.56;;;20.06;63.64
20825;BME280;10573;50.936;6.978;2023-10-19T12:27:14;98843.84;;;19.99;63.82
20825;BME280;10573;50.936;6.978;2023-10-19T12:29:39;98841.25;;;19.92;64.09
20825;BME280;10573;50.936;6.978;2023-10-19T12:32:06;98836.63;;;19.98;63.84
20825;BME280;10573;50.936;6.978;2023-10-19T12:34:32;98839.66;;;19.96;63.90
20825;BME280;10573;50.936;6.978;2023-10-19T12:36:58;98838.41;;;20.04;63.87
20825;BME280;10573;50.936;6.978;2023-10-19T12:39:24;98831.53;;;20.06;63.71
20825;BME280;10573;50.936;6.978;2023-10-19T12:42:08;98827.53;;;19.97;63.62
20825;BME280;10573;50.936;6.978;2023-10-19T12:44:34;98832.38;;;19.90;64.02
20825;BME280;10573;50.936;6.978;2023-10-19T12:47:05;98834.13;;;19.79;64.44
20825;BME280;10573;50.936;6.978;2023-10-19T12:49:35;98835.06;;;19.85;64.28
20825;BME280;10573;50.936;6.978;2023-10-19T12:52:01;98843.25;;;19.97;64.48
20825;BME280;10573;50.936;6.978;2023-10-19T12:54:29;98845.25;;;20.01;64.40
20825;BME280;10573;50.936;6.978;2023-10-19T12:56:54;98849.47;;;19.87;65.40
20825;BME280;10573;50.936;6.978;2023-10-19T12:59:20;98850.56;;;19.69;66.48
20825;BME280;10573;50.936;6.978;2023-10-19T13:01:45;98850.47;;;19.81;67.09
20825;BME280;10573;50.936;6.978;2023-10-19T13:04:16;98857.41;;;19.83;67.34
20825;BME280;10573;50.936;6.978;2023-10-19T13:06:43;98852.75;;;19.84;67.76
20825;BME280;10573;50.936;6.978;2023-10-19T13:09:09;98858.00;;;20.02;67.67
20825;BME280;10573;50.936;6.978;2023-10-19T13:11:35;98854.22;;;19.91;68.47
20825;BME280;10573;50.936;6.978;2023-10-19T13:14:00;98850.72;;;19.62;69.71